createdAt,value
2019-01-06T18:30:56.548Z,22.40
2019-01-06T18:31:53.416Z,22.26
2019-01-06T18:32:50.624Z,22.77
2019-01-06T18:33:47.565Z,24.15
2019-01-06T18:34:45.624Z,24.47
2019-01-06T18:35:41.718Z,24.19
2019-01-06T18:36:38.752Z,23.95
2019-01-06T18:37:34.957Z,23.67
2019-01-06T18:38:32.886Z,23.44
2019-01-06T18:39:29.088Z,23.34
2019-01-06T18:40:27.128Z,23.13
2019-01-06T18:41:23.193Z,22.88
2019-01-06T18:42:20.263Z,22.67
2019-01-06T18:43:17.320Z,22.47
2019-01-06T18:44:15.381Z,22.32
2019-01-06T18:45:11.498Z,22.20
2019-01-06T18:46:08.510Z,22.09
2019-01-06T18:47:05.579Z,22.01
2019-01-06T18:48:02.650Z,21.94
2019-01-06T18:48:59.732Z,21.87
2019-01-06T18:49:56.784Z,21.81
2019-01-06T18:50:54.190Z,21.78
2019-01-06T18:51:50.940Z,21.73
2019-01-06T18:52:47.988Z,21.70
2019-01-06T18:53:45.057Z,21.67
2019-01-06T18:54:42.114Z,21.64
2019-01-06T18:55:39.187Z,21.62
2019-01-06T18:56:36.271Z,21.59
2019-01-06T18:57:33.314Z,21.55
2019-01-06T18:58:30.513Z,21.53
2019-01-06T18:59:27.695Z,21.50
2019-01-06T19:00:24.521Z,21.47
2019-01-06T19:01:21.585Z,21.45
2019-01-06T19:02:18.641Z,21.43
2019-01-06T19:03:15.744Z,21.43
2019-01-06T19:04:12.832Z,21.39
2019-01-06T19:05:09.881Z,21.37
2019-01-06T19:06:06.905Z,21.37
2019-01-06T19:07:03.989Z,21.34
2019-01-06T19:08:01.080Z,21.31
2019-01-06T19:08:58.119Z,21.29
2019-01-06T19:09:55.169Z,21.29
2019-01-06T19:10:52.245Z,21.28
2019-01-06T19:11:49.356Z,21.25
2019-01-06T19:12:46.372Z,21.22
2019-01-06T19:13:43.438Z,21.20
2019-01-06T19:14:40.498Z,21.19
2019-01-06T19:15:37.575Z,21.18
2019-01-06T19:16:35.138Z,21.14
2019-01-06T19:17:40.543Z,21.12
2019-01-06T19:18:28.959Z,21.12
2019-01-06T19:19:25.827Z,21.11
2019-01-06T19:20:22.890Z,21.09
2019-01-06T19:21:20.973Z,21.09
2019-01-06T19:22:17.037Z,21.05
2019-01-06T19:23:18.171Z,21.05
2019-01-06T19:24:11.163Z,21.02
2019-01-06T19:25:09.222Z,21.01
2019-01-06T19:26:05.292Z,21.01
2019-01-06T19:27:02.391Z,20.97
2019-01-06T19:27:59.422Z,20.95
2019-01-06T19:28:56.629Z,20.95
2019-01-06T19:29:53.552Z,20.93
2019-01-06T19:30:50.645Z,20.90
2019-01-06T19:31:47.683Z,20.89
2019-01-06T19:32:44.819Z,20.89
2019-01-06T19:33:41.840Z,20.88
2019-01-06T19:34:38.891Z,20.86
2019-01-06T19:35:36.286Z,20.85
2019-01-06T19:36:33.015Z,20.82
2019-01-06T19:37:30.088Z,20.82
2019-01-06T19:38:27.171Z,20.79
2019-01-06T19:39:24.241Z,20.78
2019-01-06T19:40:21.480Z,20.77
2019-01-06T19:41:18.350Z,20.75
2019-01-06T19:42:15.420Z,20.73
2019-01-06T19:43:12.497Z,20.71
2019-01-06T19:44:09.549Z,20.70
2019-01-06T19:45:06.625Z,20.69
2019-01-06T19:46:03.708Z,20.68
2019-01-06T19:47:00.745Z,20.68
2019-01-06T19:47:57.818Z,20.67
2019-01-06T19:48:54.894Z,20.63
2019-01-06T19:49:51.957Z,20.64
2019-01-06T19:50:49.084Z,20.62
2019-01-06T19:51:46.068Z,20.61
2019-01-06T19:52:43.155Z,20.59
2019-01-06T19:53:40.214Z,20.57
2019-01-06T19:54:37.281Z,20.57
2019-01-06T19:55:34.327Z,20.57
2019-01-06T19:56:31.410Z,20.56
2019-01-06T19:57:28.623Z,20.55
2019-01-06T19:58:25.567Z,20.54
2019-01-06T19:59:22.630Z,20.53
2019-01-06T20:00:19.673Z,20.51
2019-01-06T20:01:16.735Z,20.51
2019-01-06T20:02:13.792Z,20.48
2019-01-06T20:03:10.859Z,20.46
2019-01-06T20:04:07.981Z,20.45
2019-01-06T20:05:05.017Z,20.45
2019-01-06T20:06:03.070Z,20.44
2019-01-06T20:06:59.206Z,20.42
2019-01-06T20:07:56.197Z,20.40
2019-01-06T20:08:53.266Z,20.39
2019-01-06T20:09:50.332Z,20.39
2019-01-06T20:10:47.418Z,20.37
2019-01-06T20:11:44.627Z,20.37
2019-01-06T20:12:41.524Z,20.36
2019-01-06T20:13:38.632Z,20.36
2019-01-06T20:14:35.657Z,20.36
2019-01-06T20:15:32.719Z,20.34
2019-01-06T20:16:29.789Z,20.35
2019-01-06T20:17:26.854Z,20.34
2019-01-06T20:18:23.933Z,20.34
2019-01-06T20:19:20.985Z,20.32
2019-01-06T20:20:18.356Z,20.34
2019-01-06T20:21:15.121Z,20.32
2019-01-06T20:22:12.198Z,20.32
2019-01-06T20:23:10.246Z,20.32
2019-01-06T20:24:06.331Z,20.34
2019-01-06T20:25:03.390Z,20.34
2019-01-06T20:26:00.611Z,20.34
2019-01-06T20:26:57.512Z,20.32
2019-01-06T20:27:54.580Z,20.34
2019-01-06T20:28:51.647Z,20.35
2019-01-06T20:29:48.725Z,20.34
2019-01-06T20:30:45.801Z,20.34
2019-01-06T20:31:42.841Z,20.35
2019-01-06T20:32:39.915Z,20.35
2019-01-06T20:33:37.008Z,20.36
2019-01-06T20:34:34.062Z,20.35
2019-01-06T20:35:31.112Z,20.35
2019-01-06T20:36:28.509Z,20.36
2019-01-06T20:37:25.239Z,20.36
2019-01-06T20:38:22.303Z,20.35
2019-01-06T20:39:19.425Z,20.35
2019-01-06T20:40:17.436Z,20.37
2019-01-06T20:41:13.501Z,20.37
2019-01-06T20:42:10.563Z,20.36
2019-01-06T20:43:07.649Z,20.36
2019-01-06T20:44:04.701Z,20.37
2019-01-06T20:45:01.763Z,20.36
2019-01-06T20:45:58.835Z,20.37
2019-01-06T20:46:56.892Z,20.37
2019-01-06T20:47:52.990Z,20.38
2019-01-06T20:48:50.101Z,20.37
2019-01-06T20:49:47.210Z,20.38
2019-01-06T20:50:44.156Z,20.38
2019-01-06T20:51:41.281Z,20.39
2019-01-06T20:52:41.907Z,20.38
2019-01-06T20:53:35.357Z,20.37
2019-01-06T20:54:32.798Z,20.38
2019-01-06T20:55:29.527Z,20.38
2019-01-06T20:56:26.571Z,20.37
2019-01-06T21:18:57.883Z,20.20
2019-01-06T21:19:54.944Z,20.29
2019-01-06T21:20:52.012Z,20.29
2019-01-06T21:21:49.079Z,20.27
2019-01-06T21:22:46.165Z,20.28
2019-01-06T21:23:43.227Z,20.29
2019-01-06T21:24:39.440Z,20.29
2019-01-06T21:25:37.351Z,20.29
2019-01-06T21:26:34.457Z,20.31
2019-01-06T21:27:31.484Z,20.29
2019-01-06T21:28:28.651Z,20.29
2019-01-06T21:29:25.665Z,20.29
2019-01-06T21:30:21.872Z,20.29
2019-01-06T21:31:18.898Z,20.30
2019-01-06T21:32:16.792Z,20.29
2019-01-06T21:33:14.119Z,20.29
2019-01-06T21:34:10.948Z,20.29
2019-01-06T21:35:08.459Z,20.27
2019-01-06T21:36:05.121Z,20.23
2019-01-06T21:37:02.149Z,20.22
2019-01-06T21:37:59.239Z,20.19
2019-01-06T21:38:56.284Z,20.15
2019-01-06T21:39:53.352Z,20.12
2019-01-06T21:40:50.447Z,20.10
2019-01-06T21:41:47.526Z,20.07
2019-01-06T21:42:44.530Z,20.07
2019-01-06T21:43:41.616Z,20.07
2019-01-06T21:44:38.687Z,20.05
2019-01-06T21:45:35.783Z,20.04
2019-01-06T21:46:32.850Z,20.04
2019-01-06T21:47:29.877Z,20.04
2019-01-06T21:48:26.952Z,20.01
2019-01-06T21:49:24.004Z,19.98
2019-01-06T21:50:21.086Z,19.98
2019-01-06T21:51:18.151Z,19.96
2019-01-06T21:52:15.235Z,19.96
2019-01-06T21:53:12.247Z,20.01
2019-01-06T21:54:09.332Z,20.02
2019-01-06T21:55:06.593Z,20.03
2019-01-06T21:56:03.462Z,20.03
2019-01-06T21:57:00.841Z,20.02
2019-01-06T21:57:57.581Z,20.04
2019-01-06T21:58:54.650Z,20.03
2019-01-06T21:59:52.711Z,20.03
2019-01-06T22:00:48.789Z,20.03
2019-01-06T22:01:45.847Z,20.02
2019-01-06T22:02:42.905Z,20.03
2019-01-06T22:03:39.978Z,20.02
2019-01-06T22:04:37.052Z,20.03
2019-01-06T22:05:34.118Z,20.03
2019-01-06T22:06:32.178Z,20.03
2019-01-06T22:07:28.262Z,20.04
2019-01-06T22:08:25.291Z,20.04
2019-01-06T22:09:22.387Z,20.04
2019-01-06T22:10:20.430Z,20.05
2019-01-06T22:11:16.500Z,20.04
2019-01-06T22:12:13.570Z,20.04
2019-01-06T22:13:10.634Z,20.04
2019-01-06T22:14:07.699Z,20.02
2019-01-06T22:15:04.766Z,20.01
2019-01-06T22:16:01.834Z,19.98
2019-01-06T22:16:58.901Z,19.96
2019-01-06T22:17:55.973Z,19.96
2019-01-06T22:18:53.030Z,19.96
2019-01-06T22:19:50.106Z,19.97
2019-01-06T22:20:47.160Z,19.96
2019-01-06T22:21:44.221Z,19.97
2019-01-06T22:22:41.302Z,19.97
2019-01-06T22:23:38.361Z,19.97
2019-01-06T22:24:35.429Z,19.96
2019-01-06T22:25:32.490Z,19.95
2019-01-06T22:26:29.557Z,19.94
2019-01-06T22:27:27.617Z,19.94
2019-01-06T22:28:23.684Z,19.94
2019-01-06T22:29:20.755Z,19.95
2019-01-06T22:30:17.821Z,19.93
2019-01-06T22:31:14.880Z,19.92
2019-01-06T22:32:11.951Z,19.90
2019-01-06T22:33:09.021Z,19.89
2019-01-06T22:34:07.083Z,19.90
2019-01-06T22:35:03.168Z,19.92
2019-01-06T22:36:00.204Z,19.92
2019-01-06T22:36:57.278Z,19.93
2019-01-06T22:37:54.349Z,19.92
2019-01-06T22:38:51.404Z,19.90
2019-01-06T22:39:48.627Z,19.89
2019-01-06T22:40:45.542Z,19.89
2019-01-06T22:41:42.668Z,19.90
2019-01-06T22:42:39.672Z,19.90
2019-01-06T22:43:36.745Z,19.92
2019-01-06T22:44:33.803Z,19.89
2019-01-06T22:45:30.886Z,19.88
2019-01-06T22:46:27.931Z,19.87
2019-01-06T22:47:25.001Z,19.88
2019-01-06T22:48:22.087Z,19.87
2019-01-06T22:49:19.131Z,19.87
2019-01-06T22:50:16.208Z,19.87
2019-01-06T22:51:13.335Z,19.86
2019-01-06T22:52:10.337Z,19.87
2019-01-06T22:53:07.394Z,19.87
2019-01-06T22:54:04.609Z,19.86
2019-01-06T22:55:01.543Z,19.86
2019-01-06T22:55:58.678Z,19.85
2019-01-06T22:56:55.659Z,19.86
2019-01-06T22:57:52.731Z,19.86
2019-01-06T22:58:49.790Z,19.85
2019-01-06T22:59:46.850Z,19.85
2019-01-06T23:00:43.922Z,19.86
2019-01-06T23:01:41.980Z,19.86
2019-01-06T23:02:38.071Z,19.87
2019-01-06T23:03:35.125Z,19.86
2019-01-06T23:04:32.187Z,19.85
2019-01-06T23:05:29.253Z,19.86
2019-01-06T23:06:26.318Z,19.86
2019-01-06T23:07:24.044Z,19.86
2019-01-06T23:08:20.625Z,19.86
2019-01-06T23:09:17.527Z,19.85
2019-01-06T23:10:14.578Z,19.86
2019-01-06T23:11:11.653Z,19.85
2019-01-06T23:12:09.714Z,19.82
2019-01-06T23:13:05.783Z,19.84
2019-01-06T23:14:02.847Z,19.85
2019-01-06T23:14:59.922Z,19.84
2019-01-06T23:15:56.980Z,19.84
2019-01-06T23:16:54.040Z,19.82
2019-01-06T23:17:51.122Z,19.82
2019-01-06T23:18:48.629Z,19.82
2019-01-06T23:19:45.262Z,19.81
2019-01-06T23:20:42.313Z,19.81
2019-01-06T23:21:39.370Z,19.84
2019-01-06T23:22:36.440Z,19.81
2019-01-06T23:23:33.500Z,19.82
2019-01-06T23:24:30.801Z,19.81
2019-01-06T23:25:27.635Z,19.82
2019-01-06T23:26:24.709Z,19.85
2019-01-06T23:27:21.771Z,19.86
2019-01-06T23:28:18.843Z,19.86
2019-01-06T23:29:16.901Z,19.87
2019-01-06T23:30:12.972Z,20.61
2019-01-06T23:31:10.030Z,21.45
2019-01-06T23:32:07.089Z,21.90
2019-01-06T23:33:04.171Z,21.94
2019-01-06T23:34:01.218Z,21.79
2019-01-06T23:34:58.304Z,21.62
2019-01-06T23:35:55.377Z,21.45
2019-01-06T23:36:52.452Z,21.29
2019-01-06T23:37:49.593Z,21.15
2019-01-06T23:38:46.565Z,21.03
2019-01-06T23:39:44.623Z,20.93
2019-01-06T23:40:40.682Z,20.82
2019-01-06T23:41:37.752Z,20.76
2019-01-06T23:42:34.827Z,20.69
2019-01-06T23:43:32.190Z,20.64
2019-01-06T23:44:28.954Z,20.57
2019-01-06T23:45:26.022Z,20.54
2019-01-06T23:46:23.093Z,20.51
2019-01-06T23:47:20.151Z,20.47
2019-01-06T23:48:17.217Z,20.45
2019-01-06T23:49:14.272Z,20.45
2019-01-06T23:50:12.345Z,20.42
2019-01-06T23:51:08.410Z,20.39
2019-01-06T23:52:05.476Z,20.38
2019-01-06T23:53:02.547Z,20.36
2019-01-06T23:53:59.617Z,20.36
2019-01-06T23:54:56.683Z,20.37
2019-01-06T23:55:53.755Z,20.32
2019-01-06T23:56:51.818Z,20.34
2019-01-06T23:57:47.881Z,20.32
2019-01-06T23:58:44.944Z,20.31
2019-01-06T23:59:42.011Z,20.29
